createdAt,value
2022-11-05T00:00:56.830Z,0.00
2022-11-05T00:01:56.605Z,0.00
2022-11-05T00:02:56.578Z,0.00
2022-11-05T00:03:56.578Z,0.00
2022-11-05T00:04:56.805Z,0.00
2022-11-05T00:05:56.519Z,0.00
2022-11-05T00:06:56.507Z,0.00
2022-11-05T00:07:56.505Z,0.00
2022-11-05T00:08:56.488Z,0.00
2022-11-05T00:09:56.490Z,0.00
2022-11-05T00:10:56.710Z,0.00
2022-11-05T00:11:56.490Z,0.00
2022-11-05T00:12:56.437Z,0.00
2022-11-05T00:13:56.423Z,0.00
2022-11-05T00:14:56.654Z,0.00
2022-11-05T00:15:56.400Z,0.00
2022-11-05T00:16:56.394Z,0.00
2022-11-05T00:17:56.381Z,0.00
2022-11-05T00:18:56.360Z,0.00
2022-11-05T00:19:56.580Z,0.00
2022-11-05T00:20:56.349Z,0.00
2022-11-05T00:21:56.319Z,0.00
2022-11-05T00:22:56.324Z,0.00
2022-11-05T00:23:56.292Z,0.00
2022-11-05T00:24:56.517Z,0.00
2022-11-05T00:25:56.345Z,0.00
2022-11-05T00:26:56.258Z,0.00
2022-11-05T00:27:56.235Z,0.00
2022-11-05T00:28:56.236Z,0.00
2022-11-05T00:29:56.214Z,0.00
2022-11-05T00:30:56.452Z,0.00
2022-11-05T00:31:56.193Z,0.00
2022-11-05T00:32:56.171Z,0.00
2022-11-05T00:33:56.162Z,0.00
2022-11-05T00:34:56.144Z,0.00
2022-11-05T00:35:56.398Z,0.00
2022-11-05T00:36:56.115Z,0.00
2022-11-05T00:37:56.114Z,0.00
2022-11-05T00:38:56.097Z,0.00
2022-11-05T00:39:56.090Z,0.00
2022-11-05T00:40:56.312Z,0.00
2022-11-05T00:41:56.059Z,0.00
2022-11-05T00:42:56.053Z,0.00
2022-11-05T00:43:56.076Z,0.00
2022-11-05T00:44:56.015Z,0.00
2022-11-05T00:45:56.248Z,0.00
2022-11-05T00:46:59.869Z,0.00
2022-11-05T00:47:55.983Z,0.00
2022-11-05T00:48:55.967Z,0.00
2022-11-05T00:49:55.974Z,0.00
2022-11-05T00:50:56.185Z,0.00
2022-11-05T00:51:55.932Z,0.00
2022-11-05T00:52:55.982Z,0.00
2022-11-05T00:53:55.919Z,0.00
2022-11-05T00:54:55.891Z,0.00
2022-11-05T00:55:56.112Z,0.00
2022-11-05T00:56:58.324Z,0.00
2022-11-05T00:57:56.852Z,0.00
2022-11-05T00:58:55.857Z,0.00
2022-11-05T00:59:55.822Z,0.00
2022-11-05T01:00:55.815Z,0.00
2022-11-05T01:01:56.205Z,0.00
2022-11-05T01:02:55.858Z,0.00
2022-11-05T01:03:55.780Z,0.00
2022-11-05T01:04:55.780Z,0.00
2022-11-05T01:05:55.994Z,0.00
2022-11-05T01:06:55.742Z,0.00
2022-11-05T01:07:55.728Z,0.00
2022-11-05T01:08:55.715Z,0.00
2022-11-05T01:09:55.715Z,0.00
2022-11-05T01:10:55.907Z,0.00
2022-11-05T01:11:55.680Z,0.00
2022-11-05T01:12:55.654Z,0.00
2022-11-05T01:13:55.642Z,0.00
2022-11-05T01:14:55.631Z,0.00
2022-11-05T01:15:55.890Z,0.00
2022-11-05T01:16:55.603Z,0.00
2022-11-05T01:17:55.624Z,0.00
2022-11-05T01:18:55.572Z,0.00
2022-11-05T01:19:55.565Z,0.00
2022-11-05T01:20:55.781Z,0.00
2022-11-05T01:21:55.553Z,0.00
2022-11-05T01:22:55.552Z,0.00
2022-11-05T01:23:55.517Z,0.00
2022-11-05T01:24:55.499Z,0.00
2022-11-05T01:25:55.727Z,0.00
2022-11-05T01:26:55.467Z,0.00
2022-11-05T01:27:55.473Z,0.00
2022-11-05T01:28:55.496Z,0.00
2022-11-05T01:29:55.441Z,0.00
2022-11-05T01:30:55.676Z,0.00
2022-11-05T01:31:55.417Z,0.00
2022-11-05T01:32:55.385Z,0.00
2022-11-05T01:33:55.409Z,0.00
2022-11-05T01:34:55.370Z,0.00
2022-11-05T01:35:55.616Z,0.00
2022-11-05T01:36:55.348Z,0.00
2022-11-05T01:37:55.331Z,0.00
2022-11-05T01:38:55.311Z,0.00
2022-11-05T01:39:55.321Z,0.00
2022-11-05T01:40:55.522Z,0.00
2022-11-05T01:41:55.304Z,0.00
2022-11-05T01:42:55.270Z,0.00
2022-11-05T01:43:55.281Z,0.00
2022-11-05T01:44:55.471Z,0.00
2022-11-05T01:45:55.234Z,0.00
2022-11-05T01:46:55.235Z,0.00
2022-11-05T01:47:55.217Z,0.00
2022-11-05T01:49:00.077Z,0.00
2022-11-05T01:49:56.427Z,0.00
2022-11-05T01:50:55.166Z,0.00
2022-11-05T01:51:55.166Z,0.00
2022-11-05T01:52:55.135Z,0.00
2022-11-05T01:53:55.124Z,0.00
2022-11-05T01:54:55.124Z,0.00
2022-11-05T01:55:55.343Z,0.00
2022-11-05T01:56:55.085Z,0.00
2022-11-05T01:57:55.073Z,0.00
2022-11-05T01:58:55.062Z,0.00
2022-11-05T01:59:55.061Z,0.00
2022-11-05T02:00:55.272Z,0.00
2022-11-05T02:01:55.141Z,0.00
2022-11-05T02:02:55.095Z,0.00
2022-11-05T02:03:55.001Z,0.00
2022-11-05T02:05:15.986Z,0.00
2022-11-05T02:05:55.199Z,0.00
2022-11-05T02:06:54.956Z,0.00
2022-11-05T02:07:54.955Z,0.00
2022-11-05T02:08:54.929Z,0.00
2022-11-05T02:09:54.925Z,0.00
2022-11-05T02:10:55.161Z,0.00
2022-11-05T02:11:54.898Z,0.00
2022-11-05T02:12:54.910Z,0.00
2022-11-05T02:13:54.862Z,0.00
2022-11-05T02:14:54.854Z,0.00
2022-11-05T02:15:55.090Z,0.00
2022-11-05T02:16:54.826Z,0.00
2022-11-05T02:17:54.817Z,0.00
2022-11-05T02:18:54.801Z,0.00
2022-11-05T02:19:54.815Z,0.00
2022-11-05T02:20:55.313Z,0.00
2022-11-05T02:21:54.794Z,0.00
2022-11-05T02:22:54.775Z,0.00
2022-11-05T02:23:54.766Z,0.00
2022-11-05T02:24:54.720Z,0.00
2022-11-05T02:25:54.945Z,0.00
2022-11-05T02:26:54.716Z,0.00
2022-11-05T02:27:54.723Z,0.00
2022-11-05T02:28:54.703Z,0.00
2022-11-05T02:29:54.688Z,0.00
2022-11-05T02:30:54.907Z,0.00
2022-11-05T02:31:54.633Z,0.00
2022-11-05T02:32:54.624Z,0.00
2022-11-05T02:33:54.616Z,0.00
2022-11-05T02:34:54.595Z,0.00
2022-11-05T02:35:54.834Z,0.00
2022-11-05T02:36:54.589Z,0.00
2022-11-05T02:37:54.584Z,0.00
2022-11-05T02:38:54.565Z,0.00
2022-11-05T02:39:54.538Z,0.00
2022-11-05T02:40:54.762Z,0.00
2022-11-05T02:41:54.523Z,0.00
2022-11-05T02:42:54.495Z,0.00
2022-11-05T02:43:54.505Z,0.00
2022-11-05T02:44:54.493Z,0.00
2022-11-05T02:45:54.450Z,0.00
2022-11-05T02:46:54.680Z,0.00
2022-11-05T02:47:54.482Z,0.00
2022-11-05T02:48:54.418Z,0.00
2022-11-05T02:49:54.407Z,0.00
2022-11-05T02:50:54.397Z,0.00
2022-11-05T02:51:54.655Z,0.00
2022-11-05T02:52:54.366Z,0.00
2022-11-05T02:53:54.359Z,0.00
2022-11-05T02:54:54.333Z,0.00
2022-11-05T02:55:54.334Z,0.00
2022-11-05T02:56:54.590Z,0.00
2022-11-05T02:57:54.305Z,0.00
2022-11-05T02:58:54.286Z,0.00
2022-11-05T02:59:54.281Z,0.00
2022-11-05T03:00:54.263Z,0.00
2022-11-05T03:01:54.682Z,0.00
2022-11-05T03:02:54.426Z,0.00
2022-11-05T03:03:54.234Z,0.00
2022-11-05T03:04:54.219Z,0.00
2022-11-05T03:05:54.199Z,0.00
2022-11-05T03:06:54.469Z,0.00
2022-11-05T03:07:54.190Z,0.00
2022-11-05T03:08:54.149Z,0.00
2022-11-05T03:09:54.168Z,0.00
2022-11-05T03:10:54.129Z,0.00
2022-11-05T03:11:54.363Z,0.00
2022-11-05T03:12:54.113Z,0.00
2022-11-05T03:13:54.096Z,0.00
2022-11-05T03:14:54.099Z,0.00
2022-11-05T03:15:54.086Z,0.00
2022-11-05T03:16:54.052Z,0.00
2022-11-05T03:17:54.308Z,0.00
2022-11-05T03:18:54.030Z,0.00
2022-11-05T03:19:54.017Z,0.00
2022-11-05T03:20:54.005Z,0.00
2022-11-05T03:21:53.992Z,0.00
2022-11-05T03:22:54.232Z,0.00
2022-11-05T03:23:53.980Z,0.00
2022-11-05T03:24:53.961Z,0.00
2022-11-05T03:25:53.958Z,0.00
2022-11-05T03:26:54.158Z,0.00
2022-11-05T03:27:53.928Z,0.00
2022-11-05T03:28:53.899Z,0.00
2022-11-05T03:29:53.896Z,0.00
2022-11-05T03:30:53.877Z,0.00
2022-11-05T03:31:54.116Z,0.00
2022-11-05T03:32:53.848Z,0.00
2022-11-05T03:33:53.846Z,0.00
2022-11-05T03:34:53.827Z,0.00
2022-11-05T03:35:53.813Z,0.00
2022-11-05T03:36:54.089Z,0.00
2022-11-05T03:37:53.784Z,0.00
2022-11-05T03:38:53.780Z,0.00
2022-11-05T03:39:53.754Z,0.00
2022-11-05T03:40:53.745Z,0.00
2022-11-05T03:41:53.978Z,0.00
2022-11-05T03:42:53.723Z,0.00
2022-11-05T03:43:53.740Z,0.00
2022-11-05T03:44:53.737Z,0.00
2022-11-05T03:45:53.700Z,0.00
2022-11-05T03:46:53.916Z,0.00
2022-11-05T03:47:53.670Z,0.00
2022-11-05T03:48:53.676Z,0.00
2022-11-05T03:49:53.652Z,0.00
2022-11-05T03:50:53.630Z,0.00
2022-11-05T03:51:53.855Z,0.00
2022-11-05T03:52:53.610Z,0.00
2022-11-05T03:53:53.593Z,0.00
2022-11-05T03:54:53.568Z,0.00
2022-11-05T03:55:53.554Z,0.00
2022-11-05T03:56:53.803Z,0.00
2022-11-05T03:57:53.532Z,0.00
2022-11-05T03:58:58.684Z,0.00
2022-11-05T03:59:54.521Z,0.00
2022-11-05T04:00:53.489Z,0.00
2022-11-05T04:01:53.599Z,0.00
2022-11-05T04:02:53.786Z,0.00
2022-11-05T04:03:53.450Z,0.00
2022-11-05T04:04:53.442Z,0.00
2022-11-05T04:05:53.450Z,0.00
2022-11-05T04:06:53.657Z,0.00
2022-11-05T04:07:53.413Z,0.00
2022-11-05T04:08:53.379Z,0.00
2022-11-05T04:09:53.385Z,0.00
2022-11-05T04:10:53.378Z,0.00
2022-11-05T04:11:53.583Z,0.00
2022-11-05T04:12:53.353Z,0.00
2022-11-05T04:13:53.324Z,0.00
2022-11-05T04:14:53.321Z,0.00
2022-11-05T04:15:53.303Z,0.00
2022-11-05T04:16:53.287Z,0.00
2022-11-05T04:17:53.650Z,0.00
2022-11-05T04:18:53.253Z,0.00
2022-11-05T04:19:53.281Z,0.00
2022-11-05T04:20:53.223Z,0.00
2022-11-05T04:21:53.223Z,0.00
2022-11-05T04:22:53.453Z,0.00
2022-11-05T04:23:53.209Z,0.00
2022-11-05T04:24:53.183Z,0.00
2022-11-05T04:25:53.213Z,0.00
2022-11-05T04:26:53.160Z,0.00
2022-11-05T04:27:53.379Z,0.00
2022-11-05T04:28:53.145Z,0.00
2022-11-05T04:29:53.138Z,0.00
2022-11-05T04:30:53.107Z,0.00
2022-11-05T04:31:53.093Z,0.00
2022-11-05T04:32:53.316Z,0.00
2022-11-05T04:33:53.079Z,0.00
2022-11-05T04:34:53.056Z,0.00
2022-11-05T04:35:53.078Z,0.00
2022-11-05T04:36:53.042Z,0.00
2022-11-05T04:37:53.259Z,0.00
2022-11-05T04:38:53.004Z,0.00
2022-11-05T04:39:52.996Z,0.00
2022-11-05T04:40:52.987Z,0.00
2022-11-05T04:41:52.970Z,0.00
2022-11-05T04:42:52.985Z,0.00
2022-11-05T04:43:53.188Z,0.00
2022-11-05T04:44:52.950Z,0.00
2022-11-05T04:45:52.921Z,0.00
2022-11-05T04:46:52.898Z,0.00
2022-11-05T04:47:52.887Z,0.00
2022-11-05T04:48:53.109Z,0.00
2022-11-05T04:49:52.869Z,0.00
2022-11-05T04:50:52.859Z,0.00
2022-11-05T04:51:52.865Z,0.00
2022-11-05T04:52:52.835Z,0.00
2022-11-05T04:53:53.048Z,0.00
2022-11-05T04:54:59.934Z,0.00
2022-11-05T04:55:52.842Z,0.00
2022-11-05T04:56:52.771Z,0.00
2022-11-05T04:57:52.755Z,0.00
2022-11-05T04:58:52.990Z,0.00
2022-11-05T04:59:52.768Z,0.00
2022-11-05T05:00:52.770Z,0.00
2022-11-05T05:01:52.770Z,0.00
2022-11-05T05:02:52.839Z,0.00
2022-11-05T05:03:52.960Z,0.00
2022-11-05T05:04:52.670Z,0.00
2022-11-05T05:05:54.000Z,0.00
2022-11-05T05:06:52.640Z,0.00
2022-11-05T05:07:52.638Z,0.00
2022-11-05T05:08:53.559Z,0.00
2022-11-05T05:09:52.861Z,0.00
2022-11-05T05:10:53.560Z,0.00
2022-11-05T05:11:52.587Z,0.00
2022-11-05T05:12:53.325Z,0.00
2022-11-05T05:13:52.560Z,0.00
2022-11-05T05:14:52.794Z,0.00
2022-11-05T05:15:52.535Z,0.00
2022-11-05T05:16:52.526Z,0.00
2022-11-05T05:17:52.510Z,0.00
2022-11-05T05:18:53.278Z,0.00
2022-11-05T05:19:52.792Z,0.00
2022-11-05T05:20:52.512Z,0.00
2022-11-05T05:21:52.512Z,0.00
2022-11-05T05:22:52.442Z,0.00
2022-11-05T05:23:52.430Z,0.00
2022-11-05T05:24:53.165Z,0.00
2022-11-05T05:25:52.420Z,0.00
2022-11-05T05:26:52.425Z,0.00
2022-11-05T05:27:52.387Z,0.00
2022-11-05T05:28:52.359Z,0.00
2022-11-05T05:29:52.586Z,0.00
2022-11-05T05:30:57.657Z,0.00
2022-11-05T05:31:53.336Z,0.00
2022-11-05T05:32:52.319Z,0.00
2022-11-05T05:33:53.066Z,0.00
2022-11-05T05:34:52.525Z,0.00
2022-11-05T05:35:52.353Z,0.00
2022-11-05T05:36:52.263Z,0.00
2022-11-05T05:37:52.253Z,0.00
2022-11-05T05:38:52.236Z,0.00
2022-11-05T05:39:52.474Z,0.00
2022-11-05T05:40:52.214Z,0.00
2022-11-05T05:41:52.260Z,0.00
2022-11-05T05:42:52.183Z,0.00
2022-11-05T05:43:52.181Z,0.00
2022-11-05T05:44:52.912Z,0.00
2022-11-05T05:45:52.187Z,0.00
2022-11-05T05:46:52.901Z,0.00
2022-11-05T05:47:52.740Z,0.00
2022-11-05T05:48:52.978Z,0.00
2022-11-05T05:49:52.337Z,0.00
2022-11-05T05:50:52.086Z,0.00
2022-11-05T05:51:52.115Z,0.00
2022-11-05T05:52:52.006Z,1.00
2022-11-05T05:53:52.051Z,0.00
2022-11-05T05:54:52.224Z,1.00
2022-11-05T05:55:51.973Z,1.00
2022-11-05T05:56:51.952Z,1.00
2022-11-05T05:57:52.001Z,0.00
2022-11-05T05:58:51.985Z,0.00
2022-11-05T05:59:52.214Z,0.00
2022-11-05T06:00:51.914Z,2.00
2022-11-05T06:01:52.041Z,1.00
2022-11-05T06:02:51.973Z,1.00
2022-11-05T06:03:51.923Z,0.00
2022-11-05T06:04:51.930Z,0.00
2022-11-05T06:05:52.092Z,5.00
2022-11-05T06:06:51.835Z,5.00
2022-11-05T06:07:52.758Z,5.00
2022-11-05T06:08:51.897Z,4.00
2022-11-05T06:09:52.029Z,5.00
2022-11-05T06:10:51.834Z,5.00
2022-11-05T06:11:51.772Z,2.00
2022-11-05T06:12:51.760Z,4.00
2022-11-05T06:13:51.743Z,7.00
2022-11-05T06:14:51.727Z,7.00
2022-11-05T06:15:51.957Z,12.00
2022-11-05T06:16:51.874Z,13.00
2022-11-05T06:17:51.702Z,13.00
2022-11-05T06:18:51.683Z,9.00
2022-11-05T06:19:51.680Z,18.00
2022-11-05T06:20:52.404Z,15.00
2022-11-05T06:21:51.676Z,16.00
2022-11-05T06:22:51.629Z,20.00
2022-11-05T06:23:51.624Z,17.00
2022-11-05T06:24:51.608Z,16.00
2022-11-05T06:25:51.858Z,22.00
2022-11-05T06:26:51.571Z,14.00
2022-11-05T06:27:52.319Z,17.00
2022-11-05T06:28:51.613Z,17.00
2022-11-05T06:29:51.540Z,18.00
2022-11-05T06:30:52.528Z,21.00
2022-11-05T06:31:51.522Z,21.00
2022-11-05T06:32:51.501Z,21.00
2022-11-05T06:33:51.485Z,19.00
2022-11-05T06:34:51.477Z,34.00
2022-11-05T06:35:51.697Z,24.00
2022-11-05T06:36:51.455Z,22.00
2022-11-05T06:37:51.444Z,27.00
2022-11-05T06:38:51.423Z,34.00
2022-11-05T06:39:51.419Z,30.00
2022-11-05T06:40:51.632Z,45.00
2022-11-05T06:42:16.703Z,43.00
2022-11-05T06:42:52.370Z,45.00
2022-11-05T06:43:51.359Z,44.00
2022-11-05T06:44:53.073Z,45.00
2022-11-05T06:45:51.352Z,46.00
2022-11-05T06:46:51.558Z,40.00
2022-11-05T06:47:51.312Z,41.00
2022-11-05T06:48:51.296Z,41.00
2022-11-05T06:49:52.729Z,36.00
2022-11-05T06:50:51.365Z,37.00
2022-11-05T06:51:51.578Z,21.00
2022-11-05T06:52:51.318Z,54.00
2022-11-05T06:53:51.293Z,32.00
2022-11-05T06:54:51.226Z,31.00
2022-11-05T06:55:51.215Z,25.00
2022-11-05T06:56:52.373Z,36.00
2022-11-05T06:57:51.185Z,27.00
2022-11-05T06:58:51.206Z,34.00
2022-11-05T06:59:54.563Z,46.00
2022-11-05T07:00:52.170Z,35.00
2022-11-05T07:01:51.405Z,39.00
2022-11-05T07:02:51.131Z,49.00
2022-11-05T07:03:51.159Z,38.00
2022-11-05T07:04:51.091Z,30.00
2022-11-05T07:05:52.019Z,49.00
2022-11-05T07:06:51.310Z,32.00
2022-11-05T07:07:51.090Z,32.00
2022-11-05T07:08:51.068Z,52.00
2022-11-05T07:09:51.206Z,53.00
2022-11-05T07:10:51.017Z,43.00
2022-11-05T07:11:51.249Z,67.00
2022-11-05T07:12:50.995Z,46.00
2022-11-05T07:13:51.935Z,65.00
2022-11-05T07:14:51.917Z,81.00
2022-11-05T07:15:50.954Z,85.00
2022-11-05T07:16:51.284Z,102.00
2022-11-05T07:17:51.086Z,92.00
2022-11-05T07:18:50.934Z,97.00
2022-11-05T07:19:50.935Z,111.00
2022-11-05T07:20:51.833Z,59.00
2022-11-05T07:21:51.111Z,56.00
2022-11-05T07:22:50.873Z,90.00
2022-11-05T07:23:50.862Z,80.00
2022-11-05T07:24:50.840Z,99.00
2022-11-05T07:25:50.834Z,102.00
2022-11-05T07:26:51.053Z,102.00
2022-11-05T07:27:50.800Z,98.00
2022-11-05T07:28:50.835Z,70.00
2022-11-05T07:29:50.777Z,158.00
2022-11-05T07:30:50.768Z,144.00
2022-11-05T07:31:50.987Z,69.00
2022-11-05T07:32:51.685Z,127.00
2022-11-05T07:33:50.726Z,60.00
2022-11-05T07:34:50.714Z,73.00
2022-11-05T07:35:51.686Z,101.00
2022-11-05T07:36:51.446Z,132.00
2022-11-05T07:37:50.673Z,94.00
2022-11-05T07:38:50.666Z,88.00
2022-11-05T07:39:50.686Z,98.00
2022-11-05T07:40:50.735Z,108.00
2022-11-05T07:41:50.894Z,98.00
2022-11-05T07:42:51.551Z,145.00
2022-11-05T07:43:50.683Z,188.00
2022-11-05T07:44:50.659Z,135.00
2022-11-05T07:45:50.587Z,200.00
2022-11-05T07:46:50.799Z,138.00
2022-11-05T07:47:50.554Z,276.00
2022-11-05T07:48:50.574Z,145.00
2022-11-05T07:49:50.519Z,189.00
2022-11-05T07:50:50.553Z,172.00
2022-11-05T07:51:50.494Z,133.00
2022-11-05T07:52:50.715Z,143.00
2022-11-05T07:53:50.501Z,138.00
2022-11-05T07:54:51.397Z,112.00
2022-11-05T07:55:50.438Z,145.00
2022-11-05T07:56:50.441Z,166.00
2022-11-05T07:57:50.650Z,155.00
2022-11-05T07:58:50.485Z,128.00
2022-11-05T07:59:50.393Z,195.00
2022-11-05T08:00:50.503Z,159.00
2022-11-05T08:01:50.633Z,154.00
2022-11-05T08:02:50.885Z,165.00
2022-11-05T08:03:50.343Z,182.00
2022-11-05T08:04:50.331Z,149.00
2022-11-05T08:05:50.319Z,178.00
2022-11-05T08:06:50.301Z,134.00
2022-11-05T08:07:50.533Z,157.00
2022-11-05T08:08:51.224Z,219.00
2022-11-05T08:09:50.262Z,220.00
2022-11-05T08:10:50.258Z,175.00
2022-11-05T08:11:52.901Z,137.00
2022-11-05T08:12:50.475Z,136.00
2022-11-05T08:13:50.208Z,122.00
2022-11-05T08:14:50.328Z,206.00
2022-11-05T08:15:50.185Z,182.00
2022-11-05T08:16:50.209Z,193.00
2022-11-05T08:17:50.396Z,86.00
2022-11-05T08:18:50.188Z,106.00
2022-11-05T08:19:50.134Z,187.00
2022-11-05T08:20:50.145Z,191.00
2022-11-05T08:21:50.143Z,239.00
2022-11-05T08:22:50.343Z,200.00
2022-11-05T08:23:50.171Z,150.00
2022-11-05T08:24:50.081Z,114.00
2022-11-05T08:25:50.060Z,115.00
2022-11-05T08:26:50.050Z,101.00
2022-11-05T08:27:50.260Z,166.00
2022-11-05T08:28:50.087Z,157.00
2022-11-05T08:29:50.029Z,173.00
2022-11-05T08:30:50.021Z,194.00
2022-11-05T08:31:50.029Z,150.00
2022-11-05T08:32:50.220Z,138.00
2022-11-05T08:33:50.001Z,98.00
2022-11-05T08:34:49.946Z,142.00
2022-11-05T08:35:49.965Z,152.00
2022-11-05T08:36:50.025Z,149.00
2022-11-05T08:37:51.085Z,120.00
2022-11-05T08:38:50.006Z,142.00
2022-11-05T08:39:49.876Z,121.00
2022-11-05T08:40:49.870Z,95.00
2022-11-05T08:41:49.859Z,108.00
2022-11-05T08:42:50.420Z,128.00
2022-11-05T08:43:49.885Z,181.00
2022-11-05T08:44:49.813Z,376.00
2022-11-05T08:45:49.792Z,273.00
2022-11-05T08:46:50.755Z,192.00
2022-11-05T08:47:50.007Z,108.00
2022-11-05T08:48:49.781Z,128.00
2022-11-05T08:49:49.770Z,168.00
2022-11-05T08:50:49.744Z,134.00
2022-11-05T08:51:49.980Z,108.00
2022-11-05T08:52:50.125Z,209.00
2022-11-05T08:53:49.701Z,142.00
2022-11-05T08:54:49.687Z,276.00
2022-11-05T08:55:49.666Z,297.00
2022-11-05T08:56:49.665Z,279.00
2022-11-05T08:57:49.884Z,426.00
2022-11-05T08:58:50.584Z,433.00
2022-11-05T08:59:49.649Z,302.00
2022-11-05T09:00:49.705Z,216.00
2022-11-05T09:01:49.709Z,434.00
2022-11-05T09:02:50.092Z,378.00
2022-11-05T09:03:49.778Z,189.00
2022-11-05T09:04:49.567Z,241.00
2022-11-05T09:05:49.610Z,492.00
2022-11-05T09:06:49.540Z,540.00
2022-11-05T09:07:49.746Z,560.00
2022-11-05T09:08:49.560Z,637.00
2022-11-05T09:09:49.488Z,436.00
2022-11-05T09:10:49.482Z,195.00
2022-11-05T09:12:11.226Z,246.00
2022-11-05T09:12:50.699Z,293.00
2022-11-05T09:13:49.935Z,306.00
2022-11-05T09:14:49.434Z,315.00
2022-11-05T09:15:49.450Z,440.00
2022-11-05T09:16:49.397Z,511.00
2022-11-05T09:17:49.623Z,462.00
2022-11-05T09:18:49.384Z,403.00
2022-11-05T09:19:49.420Z,326.00
2022-11-05T09:20:49.394Z,280.00
2022-11-05T09:21:49.352Z,176.00
2022-11-05T09:22:49.336Z,127.00
2022-11-05T09:23:49.546Z,163.00
2022-11-05T09:24:49.312Z,485.00
2022-11-05T09:25:49.294Z,450.00
2022-11-05T09:26:49.264Z,250.00
2022-11-05T09:27:49.256Z,276.00
2022-11-05T09:28:49.583Z,315.00
2022-11-05T09:29:49.261Z,334.00
2022-11-05T09:30:49.220Z,196.00
2022-11-05T09:31:49.199Z,193.00
2022-11-05T09:32:49.427Z,224.00
2022-11-05T09:33:49.186Z,153.00
2022-11-05T09:34:49.193Z,121.00
2022-11-05T09:35:49.174Z,163.00
2022-11-05T09:36:49.136Z,283.00
2022-11-05T09:37:49.168Z,183.00
2022-11-05T09:38:49.345Z,99.00
2022-11-05T09:39:49.093Z,98.00
2022-11-05T09:40:49.104Z,207.00
2022-11-05T09:41:49.066Z,199.00
2022-11-05T09:42:49.312Z,105.00
2022-11-05T09:43:49.056Z,136.00
2022-11-05T09:44:49.041Z,127.00
2022-11-05T09:45:49.051Z,76.00
2022-11-05T09:46:49.014Z,165.00
2022-11-05T09:47:49.233Z,343.00
2022-11-05T09:48:48.980Z,160.00
2022-11-05T09:49:48.967Z,86.00
2022-11-05T09:50:48.957Z,146.00
2022-11-05T09:51:48.960Z,190.00
2022-11-05T09:52:49.224Z,365.00
2022-11-05T09:53:48.911Z,261.00
2022-11-05T09:54:48.941Z,154.00
2022-11-05T09:55:48.898Z,95.00
2022-11-05T09:56:48.887Z,122.00
2022-11-05T09:57:49.123Z,182.00
2022-11-05T09:58:48.854Z,129.00
2022-11-05T09:59:48.853Z,167.00
2022-11-05T10:00:48.886Z,201.00
2022-11-05T10:01:49.045Z,236.00
2022-11-05T10:02:48.815Z,293.00
2022-11-05T10:03:48.813Z,246.00
2022-11-05T10:04:48.901Z,228.00
2022-11-05T10:05:48.841Z,182.00
2022-11-05T10:06:48.793Z,311.00
2022-11-05T10:07:48.726Z,330.00
2022-11-05T10:08:49.008Z,485.00
2022-11-05T10:09:48.707Z,411.00
2022-11-05T10:10:48.870Z,357.00
2022-11-05T10:11:48.687Z,307.00
2022-11-05T10:12:48.705Z,365.00
2022-11-05T10:13:48.669Z,240.00
2022-11-05T10:14:48.649Z,175.00
2022-11-05T10:15:48.958Z,266.00
2022-11-05T10:16:48.621Z,403.00
2022-11-05T10:17:48.605Z,297.00
2022-11-05T10:18:48.640Z,265.00
2022-11-05T10:19:48.593Z,328.00
2022-11-05T10:20:48.565Z,409.00
2022-11-05T10:22:50.520Z,189.00
2022-11-05T10:23:49.493Z,98.00
2022-11-05T10:24:48.596Z,81.00
2022-11-05T10:25:48.708Z,107.00
2022-11-05T10:26:48.492Z,316.00
2022-11-05T10:27:48.474Z,244.00
2022-11-05T10:28:48.469Z,144.00
2022-11-05T10:29:48.445Z,255.00
2022-11-05T10:30:48.441Z,165.00
2022-11-05T10:31:48.646Z,131.00
2022-11-05T10:32:48.422Z,266.00
2022-11-05T10:33:48.409Z,354.00
2022-11-05T10:34:48.411Z,347.00
2022-11-05T10:35:48.366Z,335.00
2022-11-05T10:36:48.539Z,617.00
2022-11-05T10:37:48.336Z,393.00
2022-11-05T10:38:48.336Z,293.00
2022-11-05T10:39:48.315Z,128.00
2022-11-05T10:40:48.320Z,159.00
2022-11-05T10:41:48.478Z,267.00
2022-11-05T10:42:48.279Z,322.00
2022-11-05T10:43:48.333Z,372.00
2022-11-05T10:44:48.255Z,317.00
2022-11-05T10:45:48.247Z,247.00
2022-11-05T10:46:48.463Z,308.00
2022-11-05T10:47:48.243Z,348.00
2022-11-05T10:48:48.201Z,391.00
2022-11-05T10:49:48.189Z,462.00
2022-11-05T10:50:48.181Z,387.00
2022-11-05T10:51:48.540Z,206.00
2022-11-05T10:52:48.169Z,146.00
2022-11-05T10:53:48.150Z,178.00
2022-11-05T10:54:48.138Z,325.00
2022-11-05T10:55:55.170Z,359.00
2022-11-05T10:56:48.953Z,397.00
2022-11-05T10:57:48.380Z,399.00
2022-11-05T10:58:48.845Z,201.00
2022-11-05T10:59:48.069Z,364.00
2022-11-05T11:00:48.114Z,456.00
2022-11-05T11:01:48.162Z,296.00
2022-11-05T11:02:48.075Z,441.00
2022-11-05T11:03:48.321Z,382.00
2022-11-05T11:04:48.012Z,565.00
2022-11-05T11:05:47.980Z,676.00
2022-11-05T11:06:48.029Z,454.00
2022-11-05T11:07:47.960Z,434.00
2022-11-05T11:08:47.987Z,231.00
2022-11-05T11:09:48.128Z,184.00
2022-11-05T11:10:47.931Z,252.00
2022-11-05T11:11:47.958Z,653.00
2022-11-05T11:12:47.917Z,554.00
2022-11-05T11:13:47.884Z,298.00
2022-11-05T11:14:48.095Z,280.00
2022-11-05T11:15:47.856Z,413.00
2022-11-05T11:16:47.874Z,595.00
2022-11-05T11:17:47.848Z,637.00
2022-11-05T11:18:47.834Z,716.00
2022-11-05T11:19:47.994Z,526.00
2022-11-05T11:20:47.930Z,370.00
2022-11-05T11:21:47.781Z,372.00
2022-11-05T11:22:47.765Z,643.00
2022-11-05T11:23:47.779Z,813.00
2022-11-05T11:24:47.742Z,680.00
2022-11-05T11:25:47.924Z,612.00
2022-11-05T11:26:47.711Z,528.00
2022-11-05T11:27:47.709Z,592.00
2022-11-05T11:28:47.735Z,656.00
2022-11-05T11:29:49.534Z,721.00
2022-11-05T11:30:47.680Z,669.00
2022-11-05T11:31:47.690Z,582.00
2022-11-05T11:32:47.651Z,583.00
2022-11-05T11:33:47.666Z,553.00
2022-11-05T11:34:47.612Z,614.00
2022-11-05T11:35:47.625Z,728.00
2022-11-05T11:36:47.795Z,719.00
2022-11-05T11:37:47.608Z,601.00
2022-11-05T11:38:47.574Z,617.00
2022-11-05T11:39:47.553Z,619.00
2022-11-05T11:40:47.533Z,721.00
2022-11-05T11:41:47.524Z,573.00
2022-11-05T11:42:47.792Z,457.00
2022-11-05T11:43:47.508Z,317.00
2022-11-05T11:44:47.483Z,423.00
2022-11-05T11:45:47.495Z,335.00
2022-11-05T11:46:47.501Z,300.00
2022-11-05T11:47:47.461Z,347.00
2022-11-05T11:48:47.672Z,411.00
2022-11-05T11:49:47.438Z,549.00
2022-11-05T11:50:47.460Z,457.00
2022-11-05T11:51:50.150Z,663.00
2022-11-05T11:52:47.443Z,791.00
2022-11-05T11:53:47.545Z,418.00
2022-11-05T11:54:47.422Z,260.00
2022-11-05T11:55:47.359Z,268.00
2022-11-05T11:56:47.352Z,214.00
2022-11-05T11:57:48.320Z,160.00
2022-11-05T11:58:47.317Z,139.00
2022-11-05T12:00:07.836Z,142.00
2022-11-05T12:00:48.283Z,333.00
2022-11-05T12:01:47.356Z,207.00
2022-11-05T12:02:47.383Z,174.00
2022-11-05T12:03:47.252Z,209.00
2022-11-05T12:04:47.249Z,271.00
2022-11-05T12:05:47.393Z,462.00
2022-11-05T12:06:47.198Z,525.00
2022-11-05T12:07:47.212Z,502.00
2022-11-05T12:08:50.747Z,409.00
2022-11-05T12:09:48.166Z,289.00
2022-11-05T12:10:47.569Z,262.00
2022-11-05T12:11:47.140Z,325.00
2022-11-05T12:12:47.448Z,441.00
2022-11-05T12:13:47.118Z,853.00
2022-11-05T12:14:47.174Z,732.00
2022-11-05T12:15:47.118Z,768.00
2022-11-05T12:16:47.256Z,655.00
2022-11-05T12:17:47.068Z,826.00
2022-11-05T12:18:47.063Z,894.00
2022-11-05T12:19:47.035Z,779.00
2022-11-05T12:20:48.380Z,514.00
2022-11-05T12:21:52.868Z,730.00
2022-11-05T12:22:48.010Z,696.00
2022-11-05T12:23:47.019Z,392.00
2022-11-05T12:24:46.975Z,478.00
2022-11-05T12:25:46.992Z,393.00
2022-11-05T12:26:46.941Z,439.00
2022-11-05T12:27:47.172Z,626.00
2022-11-05T12:29:16.851Z,448.00
2022-11-05T12:29:47.913Z,355.00
2022-11-05T12:30:46.934Z,194.00
2022-11-05T12:31:46.889Z,324.00
2022-11-05T12:32:46.906Z,208.00
2022-11-05T12:33:47.112Z,367.00
2022-11-05T12:34:46.850Z,341.00
2022-11-05T12:35:49.883Z,457.00
2022-11-05T12:36:47.818Z,483.00
2022-11-05T12:37:46.861Z,442.00
2022-11-05T12:38:46.994Z,457.00
2022-11-05T12:39:46.793Z,517.00
2022-11-05T12:40:46.776Z,570.00
2022-11-05T12:41:46.762Z,597.00
2022-11-05T12:42:46.766Z,514.00
2022-11-05T12:43:46.731Z,240.00
2022-11-05T12:44:47.038Z,441.00
2022-11-05T12:45:46.717Z,596.00
2022-11-05T12:46:46.687Z,555.00
2022-11-05T12:47:46.693Z,493.00
2022-11-05T12:48:46.662Z,419.00
2022-11-05T12:49:46.650Z,436.00
2022-11-05T12:50:46.880Z,431.00
2022-11-05T12:51:46.655Z,408.00
2022-11-05T12:52:46.617Z,443.00
2022-11-05T12:53:46.610Z,506.00
2022-11-05T12:54:46.613Z,436.00
2022-11-05T12:55:48.729Z,244.00